sensor_id;sensor_type;location;lat;lon;timestamp;temperature;humidity
16441;DHT22;8330;-33.858;151.184;2023-04-03T00:01:30;20.10;99.90
16441;DHT22;8330;-33.858;151.184;2023-04-03T00:04:01;20.10;99.90
16441;DHT22;8330;-33.858;151.184;2023-04-03T00:06:33;20.10;99.90
16441;DHT22;8330;-33.858;151.184;2023-04-03T00:09:04;20.00;99.90
16441;DHT22;8330;-33.858;151.184;2023-04-03T00:11:37;20.00;99.90
16441;DHT22;8330;-33.858;151.184;2023-04-03T00:14:08;20.00;99.90
16441;DHT22;8330;-33.858;151.184;2023-04-03T00:16:39;20.00;99.90
16441;DHT22;8330;-33.858;151.184;2023-04-03T00:19:10;20.00;99.90
16441;DHT22;8330;-33.858;151.184;2023-04-03T00:21:41;20.00;99.90
16441;DHT22;8330;-33.858;151.184;2023-04-03T00:24:13;20.10;99.90
16441;DHT22;8330;-33.858;151.184;2023-04-03T00:26:46;20.00;99.90
16441;DHT22;8330;-33.858;151.184;2023-04-03T00:29:17;20.00;99.90
16441;DHT22;8330;-33.858;151.184;2023-04-03T00:31:48;20.10;99.90
16441;DHT22;8330;-33.858;151.184;2023-04-03T00:34:19;20.10;99.90
16441;DHT22;8330;-33.858;151.184;2023-04-03T00:36:50;20.10;99.90
16441;DHT22;8330;-33.858;151.184;2023-04-03T00:39:21;20.10;99.90
16441;DHT22;8330;-33.858;151.184;2023-04-03T00:41:54;20.20;99.90
16441;DHT22;8330;-33.858;151.184;2023-04-03T00:47:28;20.30;99.90
16441;DHT22;8330;-33.858;151.184;2023-04-03T00:50:00;20.30;99.90
16441;DHT22;8330;-33.858;151.184;2023-04-03T00:52:33;20.40;99.90
16441;DHT22;8330;-33.858;151.184;2023-04-03T00:55:05;20.50;99.90
16441;DHT22;8330;-33.858;151.184;2023-04-03T00:57:40;20.70;99.90
16441;DHT22;8330;-33.858;151.184;2023-04-03T01:00:14;20.80;99.90
16441;DHT22;8330;-33.858;151.184;2023-04-03T01:02:46;21.00;99.90
16441;DHT22;8330;-33.858;151.184;2023-04-03T01:05:19;21.10;99.90
16441;DHT22;8330;-33.858;151.184;2023-04-03T01:07:51;21.10;99.90
16441;DHT22;8330;-33.858;151.184;2023-04-03T01:10:23;21.10;99.90
16441;DHT22;8330;-33.858;151.184;2023-04-03T01:12:56;21.10;99.90
16441;DHT22;8330;-33.858;151.184;2023-04-03T01:15:28;21.10;99.90
16441;DHT22;8330;-33.858;151.184;2023-04-03T01:18:02;21.20;99.90
16441;DHT22;8330;-33.858;151.184;2023-04-03T01:24:01;21.40;99.90
16441;DHT22;8330;-33.858;151.184;2023-04-03T01:26:36;21.50;99.90
16441;DHT22;8330;-33.858;151.184;2023-04-03T01:29:09;21.70;99.90
16441;DHT22;8330;-33.858;151.184;2023-04-03T01:31:49;21.80;99.90
16441;DHT22;8330;-33.858;151.184;2023-04-03T01:34:21;21.90;99.90
16441;DHT22;8330;-33.858;151.184;2023-04-03T01:36:52;21.90;99.90
16441;DHT22;8330;-33.858;151.184;2023-04-03T01:39:24;21.90;99.90
16441;DHT22;8330;-33.858;151.184;2023-04-03T01:41:55;22.00;99.90
16441;DHT22;8330;-33.858;151.184;2023-04-03T01:44:27;22.00;99.90
16441;DHT22;8330;-33.858;151.184;2023-04-03T01:47:00;22.10;99.90
16441;DHT22;8330;-33.858;151.184;2023-04-03T01:49:31;22.10;99.90
16441;DHT22;8330;-33.858;151.184;2023-04-03T01:52:02;22.20;99.90
16441;DHT22;8330;-33.858;151.184;2023-04-03T01:54:33;22.30;99.90
16441;DHT22;8330;-33.858;151.184;2023-04-03T01:57:04;22.40;99.90
16441;DHT22;8330;-33.858;151.184;2023-04-03T01:59:35;22.50;99.90
16441;DHT22;8330;-33.858;151.184;2023-04-03T02:02:08;22.60;99.90
16441;DHT22;8330;-33.858;151.184;2023-04-03T02:04:40;22.60;99.90
16441;DHT22;8330;-33.858;151.184;2023-04-03T02:07:11;22.70;99.90
16441;DHT22;8330;-33.858;151.184;2023-04-03T02:09:42;22.80;99.90
16441;DHT22;8330;-33.858;151.184;2023-04-03T02:12:13;22.80;99.90
16441;DHT22;8330;-33.858;151.184;2023-04-03T02:14:44;22.80;99.90
16441;DHT22;8330;-33.858;151.184;2023-04-03T02:17:17;22.90;99.90
16441;DHT22;8330;-33.858;151.184;2023-04-03T02:19:49;22.90;99.90
16441;DHT22;8330;-33.858;151.184;2023-04-03T02:22:20;23.00;99.90
16441;DHT22;8330;-33.858;151.184;2023-04-03T02:24:51;23.10;99.90
16441;DHT22;8330;-33.858;151.184;2023-04-03T02:27:22;23.10;99.90
16441;DHT22;8330;-33.858;151.184;2023-04-03T02:29:53;23.20;99.90
16441;DHT22;8330;-33.858;151.184;2023-04-03T02:32:26;23.40;99.90
16441;DHT22;8330;-33.858;151.184;2023-04-03T02:34:57;23.50;99.90
16441;DHT22;8330;-33.858;151.184;2023-04-03T02:37:28;23.60;99.90
16441;DHT22;8330;-33.858;151.184;2023-04-03T02:40:00;23.60;99.90
16441;DHT22;8330;-33.858;151.184;2023-04-03T02:42:31;23.70;99.90
16441;DHT22;8330;-33.858;151.184;2023-04-03T02:45:02;23.80;99.90
16441;DHT22;8330;-33.858;151.184;2023-04-03T02:47:36;23.80;99.90
16441;DHT22;8330;-33.858;151.184;2023-04-03T02:50:07;23.90;99.90
16441;DHT22;8330;-33.858;151.184;2023-04-03T02:52:38;23.90;99.90
16441;DHT22;8330;-33.858;151.184;2023-04-03T02:55:12;24.10;99.90
16441;DHT22;8330;-33.858;151.184;2023-04-03T02:57:44;24.10;99.90
16441;DHT22;8330;-33.858;151.184;2023-04-03T03:00:15;24.20;99.90
16441;DHT22;8330;-33.858;151.184;2023-04-03T03:02:49;24.20;99.90
16441;DHT22;8330;-33.858;151.184;2023-04-03T03:05:20;24.10;99.90
16441;DHT22;8330;-33.858;151.184;2023-04-03T03:07:52;24.00;99.90
16441;DHT22;8330;-33.858;151.184;2023-04-03T03:10:23;24.00;99.90
16441;DHT22;8330;-33.858;151.184;2023-04-03T03:12:56;24.00;99.90
16441;DHT22;8330;-33.858;151.184;2023-04-03T03:15:27;24.10;99.90
16441;DHT22;8330;-33.858;151.184;2023-04-03T03:18:00;24.20;99.90
16441;DHT22;8330;-33.858;151.184;2023-04-03T03:20:31;24.30;99.90
16441;DHT22;8330;-33.858;151.184;2023-04-03T03:23:02;24.30;99.90
16441;DHT22;8330;-33.858;151.184;2023-04-03T03:25:34;24.30;99.90
16441;DHT22;8330;-33.858;151.184;2023-04-03T03:28:08;24.40;99.90
16441;DHT22;8330;-33.858;151.184;2023-04-03T03:30:39;24.50;99.90
16441;DHT22;8330;-33.858;151.184;2023-04-03T03:33:12;24.50;99.90
16441;DHT22;8330;-33.858;151.184;2023-04-03T03:35:45;24.70;99.90
16441;DHT22;8330;-33.858;151.184;2023-04-03T03:38:16;24.70;99.90
16441;DHT22;8330;-33.858;151.184;2023-04-03T03:40:49;24.80;99.90
16441;DHT22;8330;-33.858;151.184;2023-04-03T03:43:20;24.70;99.90
16441;DHT22;8330;-33.858;151.184;2023-04-03T03:45:52;24.70;99.90
16441;DHT22;8330;-33.858;151.184;2023-04-03T03:48:26;24.70;99.90
16441;DHT22;8330;-33.858;151.184;2023-04-03T03:51:00;24.60;99.90
16441;DHT22;8330;-33.858;151.184;2023-04-03T03:53:31;24.60;99.90
16441;DHT22;8330;-33.858;151.184;2023-04-03T03:56:03;24.50;99.90
16441;DHT22;8330;-33.858;151.184;2023-04-03T03:58:34;24.50;99.90
16441;DHT22;8330;-33.858;151.184;2023-04-03T04:01:06;24.40;99.90
16441;DHT22;8330;-33.858;151.184;2023-04-03T04:03:39;24.30;99.90
16441;DHT22;8330;-33.858;151.184;2023-04-03T04:06:10;24.30;99.90
16441;DHT22;8330;-33.858;151.184;2023-04-03T04:08:41;24.20;99.90
16441;DHT22;8330;-33.858;151.184;2023-04-03T04:11:12;24.10;99.90
16441;DHT22;8330;-33.858;151.184;2023-04-03T04:13:43;24.10;99.90
16441;DHT22;8330;-33.858;151.184;2023-04-03T04:16:14;24.10;99.90
16441;DHT22;8330;-33.858;151.184;2023-04-03T04:18:47;24.10;99.90
16441;DHT22;8330;-33.858;151.184;2023-04-03T04:21:18;24.10;99.90
16441;DHT22;8330;-33.858;151.184;2023-04-03T04:23:49;24.00;99.90
16441;DHT22;8330;-33.858;151.184;2023-04-03T04:26:20;24.00;99.90
16441;DHT22;8330;-33.858;151.184;2023-04-03T04:28:52;24.00;99.90
16441;DHT22;8330;-33.858;151.184;2023-04-03T04:31:23;24.10;99.90
16441;DHT22;8330;-33.858;151.184;2023-04-03T04:33:56;24.10;99.90
16441;DHT22;8330;-33.858;151.184;2023-04-03T04:36:28;24.10;99.90
16441;DHT22;8330;-33.858;151.184;2023-04-03T04:38:59;24.00;99.90
16441;DHT22;8330;-33.858;151.184;2023-04-03T04:41:30;23.90;99.90
16441;DHT22;8330;-33.858;151.184;2023-04-03T04:44:01;23.90;99.90
16441;DHT22;8330;-33.858;151.184;2023-04-03T04:46:33;23.90;99.90
16441;DHT22;8330;-33.858;151.184;2023-04-03T04:49:06;23.90;99.90
16441;DHT22;8330;-33.858;151.184;2023-04-03T04:51:37;24.00;99.90
16441;DHT22;8330;-33.858;151.184;2023-04-03T04:54:08;24.00;99.90
16441;DHT22;8330;-33.858;151.184;2023-04-03T04:56:39;24.00;99.90
16441;DHT22;8330;-33.858;151.184;2023-04-03T04:59:10;24.10;99.90
16441;DHT22;8330;-33.858;151.184;2023-04-03T05:01:43;24.00;99.90
16441;DHT22;8330;-33.858;151.184;2023-04-03T05:04:16;24.10;99.90
16441;DHT22;8330;-33.858;151.184;2023-04-03T05:06:48;24.00;99.90
16441;DHT22;8330;-33.858;151.184;2023-04-03T05:09:19;23.80;99.90
16441;DHT22;8330;-33.858;151.184;2023-04-03T05:11:50;23.70;99.90
16441;DHT22;8330;-33.858;151.184;2023-04-03T05:14:21;23.60;99.90
16441;DHT22;8330;-33.858;151.184;2023-04-03T05:16:52;23.60;99.90
16441;DHT22;8330;-33.858;151.184;2023-04-03T05:19:25;23.60;99.90
16441;DHT22;8330;-33.858;151.184;2023-04-03T05:21:56;23.60;99.90
16441;DHT22;8330;-33.858;151.184;2023-04-03T05:24:27;23.60;99.90
16441;DHT22;8330;-33.858;151.184;2023-04-03T05:26:58;23.60;99.90
16441;DHT22;8330;-33.858;151.184;2023-04-03T05:29:30;23.70;99.90
16441;DHT22;8330;-33.858;151.184;2023-04-03T05:32:01;23.60;99.90
16441;DHT22;8330;-33.858;151.184;2023-04-03T05:34:34;23.60;99.90
16441;DHT22;8330;-33.858;151.184;2023-04-03T05:37:05;23.60;99.90
16441;DHT22;8330;-33.858;151.184;2023-04-03T05:39:39;23.70;99.90
16441;DHT22;8330;-33.858;151.184;2023-04-03T05:42:14;23.70;99.90
16441;DHT22;8330;-33.858;151.184;2023-04-03T05:44:45;23.80;99.90
16441;DHT22;8330;-33.858;151.184;2023-04-03T05:47:18;23.80;99.90
16441;DHT22;8330;-33.858;151.184;2023-04-03T05:49:51;23.80;99.90
16441;DHT22;8330;-33.858;151.184;2023-04-03T05:52:25;23.90;99.90
16441;DHT22;8330;-33.858;151.184;2023-04-03T05:54:57;24.00;99.90
16441;DHT22;8330;-33.858;151.184;2023-04-03T05:57:28;24.10;99.90
16441;DHT22;8330;-33.858;151.184;2023-04-03T06:00:00;24.20;99.90
16441;DHT22;8330;-33.858;151.184;2023-04-03T06:02:31;24.20;99.90
16441;DHT22;8330;-33.858;151.184;2023-04-03T06:05:06;24.10;99.90
16441;DHT22;8330;-33.858;151.184;2023-04-03T06:07:37;24.30;99.90
16441;DHT22;8330;-33.858;151.184;2023-04-03T06:10:10;24.30;99.90
16441;DHT22;8330;-33.858;151.184;2023-04-03T06:12:43;24.50;99.90
16441;DHT22;8330;-33.858;151.184;2023-04-03T06:15:14;24.60;99.90
16441;DHT22;8330;-33.858;151.184;2023-04-03T06:17:45;24.60;99.90
16441;DHT22;8330;-33.858;151.184;2023-04-03T06:20:19;24.70;99.90
16441;DHT22;8330;-33.858;151.184;2023-04-03T06:22:50;24.70;99.90
16441;DHT22;8330;-33.858;151.184;2023-04-03T06:25:21;24.80;99.90
16441;DHT22;8330;-33.858;151.184;2023-04-03T06:27:52;24.90;99.90
16441;DHT22;8330;-33.858;151.184;2023-04-03T06:30:23;24.90;99.90
16441;DHT22;8330;-33.858;151.184;2023-04-03T06:32:55;24.70;99.90
16441;DHT22;8330;-33.858;151.184;2023-04-03T06:35:29;24.70;99.90
16441;DHT22;8330;-33.858;151.184;2023-04-03T06:38:03;24.60;99.90
16441;DHT22;8330;-33.858;151.184;2023-04-03T06:40:37;24.50;99.90
16441;DHT22;8330;-33.858;151.184;2023-04-03T06:43:08;24.30;99.90
16441;DHT22;8330;-33.858;151.184;2023-04-03T06:45:39;24.20;99.90
16441;DHT22;8330;-33.858;151.184;2023-04-03T06:48:10;23.90;99.90
16441;DHT22;8330;-33.858;151.184;2023-04-03T06:50:43;23.70;99.90
16441;DHT22;8330;-33.858;151.184;2023-04-03T06:53:14;23.60;99.90
16441;DHT22;8330;-33.858;151.184;2023-04-03T06:55:46;23.50;99.90
16441;DHT22;8330;-33.858;151.184;2023-04-03T06:58:18;23.50;99.90
16441;DHT22;8330;-33.858;151.184;2023-04-03T07:00:49;23.40;99.90
16441;DHT22;8330;-33.858;151.184;2023-04-03T07:03:21;23.40;99.90
16441;DHT22;8330;-33.858;151.184;2023-04-03T07:05:54;23.30;99.90
16441;DHT22;8330;-33.858;151.184;2023-04-03T07:08:25;23.30;99.90
16441;DHT22;8330;-33.858;151.184;2023-04-03T07:10:56;23.20;99.90
16441;DHT22;8330;-33.858;151.184;2023-04-03T07:13:29;23.20;99.90
16441;DHT22;8330;-33.858;151.184;2023-04-03T07:16:01;23.10;99.90
16441;DHT22;8330;-33.858;151.184;2023-04-03T07:18:33;23.10;99.90
16441;DHT22;8330;-33.858;151.184;2023-04-03T07:21:08;23.00;99.90
16441;DHT22;8330;-33.858;151.184;2023-04-03T07:23:39;22.80;99.90
16441;DHT22;8330;-33.858;151.184;2023-04-03T07:26:10;22.80;99.90
16441;DHT22;8330;-33.858;151.184;2023-04-03T07:28:41;22.80;99.90
16441;DHT22;8330;-33.858;151.184;2023-04-03T07:31:15;22.80;99.90
16441;DHT22;8330;-33.858;151.184;2023-04-03T07:33:47;22.60;99.90
16441;DHT22;8330;-33.858;151.184;2023-04-03T07:36:22;22.60;99.90
16441;DHT22;8330;-33.858;151.184;2023-04-03T07:38:56;22.60;99.90
16441;DHT22;8330;-33.858;151.184;2023-04-03T07:41:27;22.50;99.90
16441;DHT22;8330;-33.858;151.184;2023-04-03T07:43:58;22.50;99.90
16441;DHT22;8330;-33.858;151.184;2023-04-03T07:46:30;22.40;99.90
16441;DHT22;8330;-33.858;151.184;2023-04-03T07:49:01;22.40;99.90
16441;DHT22;8330;-33.858;151.184;2023-04-03T07:51:34;22.40;99.90
16441;DHT22;8330;-33.858;151.184;2023-04-03T07:54:05;22.30;99.90
16441;DHT22;8330;-33.858;151.184;2023-04-03T07:56:37;22.30;99.90
16441;DHT22;8330;-33.858;151.184;2023-04-03T07:59:08;22.30;99.90
16441;DHT22;8330;-33.858;151.184;2023-04-03T08:01:39;22.20;99.90
16441;DHT22;8330;-33.858;151.184;2023-04-03T08:04:10;22.20;99.90
16441;DHT22;8330;-33.858;151.184;2023-04-03T08:06:43;22.20;99.90
16441;DHT22;8330;-33.858;151.184;2023-04-03T08:09:14;22.20;99.90
16441;DHT22;8330;-33.858;151.184;2023-04-03T08:11:46;22.20;99.90
16441;DHT22;8330;-33.858;151.184;2023-04-03T08:14:21;22.10;99.90
16441;DHT22;8330;-33.858;151.184;2023-04-03T08:16:52;22.10;99.90
16441;DHT22;8330;-33.858;151.184;2023-04-03T08:19:23;22.00;99.90
16441;DHT22;8330;-33.858;151.184;2023-04-03T08:21:56;22.00;99.90
16441;DHT22;8330;-33.858;151.184;2023-04-03T08:24:30;22.00;99.90
16441;DHT22;8330;-33.858;151.184;2023-04-03T08:27:01;22.00;99.90
16441;DHT22;8330;-33.858;151.184;2023-04-03T08:29:32;22.00;99.90
16441;DHT22;8330;-33.858;151.184;2023-04-03T08:32:05;21.90;99.90
16441;DHT22;8330;-33.858;151.184;2023-04-03T08:34:37;21.90;99.90
16441;DHT22;8330;-33.858;151.184;2023-04-03T08:37:10;21.90;99.90
16441;DHT22;8330;-33.858;151.184;2023-04-03T08:39:41;21.90;99.90
16441;DHT22;8330;-33.858;151.184;2023-04-03T08:42:18;21.80;99.90
16441;DHT22;8330;-33.858;151.184;2023-04-03T08:44:57;21.80;99.90
16441;DHT22;8330;-33.858;151.184;2023-04-03T08:47:38;21.90;99.90
16441;DHT22;8330;-33.858;151.184;2023-04-03T08:50:15;21.90;99.90
16441;DHT22;8330;-33.858;151.184;2023-04-03T08:52:51;21.90;99.90
16441;DHT22;8330;-33.858;151.184;2023-04-03T08:55:25;21.90;99.90
16441;DHT22;8330;-33.858;151.184;2023-04-03T08:58:01;21.90;99.90
16441;DHT22;8330;-33.858;151.184;2023-04-03T09:00:40;21.90;99.90
16441;DHT22;8330;-33.858;151.184;2023-04-03T09:03:14;21.90;99.90
16441;DHT22;8330;-33.858;151.184;2023-04-03T09:05:48;21.90;99.90
16441;DHT22;8330;-33.858;151.184;2023-04-03T09:08:24;22.00;99.90
16441;DHT22;8330;-33.858;151.184;2023-04-03T09:11:05;22.00;99.90
16441;DHT22;8330;-33.858;151.184;2023-04-03T09:13:43;22.00;99.90
16441;DHT22;8330;-33.858;151.184;2023-04-03T09:16:24;22.00;99.90
16441;DHT22;8330;-33.858;151.184;2023-04-03T09:19:02;21.90;99.90
16441;DHT22;8330;-33.858;151.184;2023-04-03T09:21:38;21.90;99.90
16441;DHT22;8330;-33.858;151.184;2023-04-03T09:24:15;21.90;99.90
16441;DHT22;8330;-33.858;151.184;2023-04-03T09:26:48;22.00;99.90
16441;DHT22;8330;-33.858;151.184;2023-04-03T09:29:23;22.00;99.90
16441;DHT22;8330;-33.858;151.184;2023-04-03T09:31:58;22.00;99.90
16441;DHT22;8330;-33.858;151.184;2023-04-03T09:34:32;21.90;99.90
16441;DHT22;8330;-33.858;151.184;2023-04-03T09:37:05;22.00;99.90
16441;DHT22;8330;-33.858;151.184;2023-04-03T09:39:52;21.90;99.90
16441;DHT22;8330;-33.858;151.184;2023-04-03T09:42:24;21.90;99.90
16441;DHT22;8330;-33.858;151.184;2023-04-03T09:44:59;21.90;99.90
16441;DHT22;8330;-33.858;151.184;2023-04-03T09:47:31;21.90;99.90
16441;DHT22;8330;-33.858;151.184;2023-04-03T09:50:23;21.90;99.90
16441;DHT22;8330;-33.858;151.184;2023-04-03T09:52:55;21.90;99.90
16441;DHT22;8330;-33.858;151.184;2023-04-03T09:55:28;21.90;99.90
16441;DHT22;8330;-33.858;151.184;2023-04-03T09:58:01;21.90;99.90
16441;DHT22;8330;-33.858;151.184;2023-04-03T10:00:35;21.90;99.90
16441;DHT22;8330;-33.858;151.184;2023-04-03T10:03:20;21.90;99.90
16441;DHT22;8330;-33.858;151.184;2023-04-03T10:05:55;21.90;99.90
16441;DHT22;8330;-33.858;151.184;2023-04-03T10:08:28;21.90;99.90
16441;DHT22;8330;-33.858;151.184;2023-04-03T10:11:13;21.90;99.90
16441;DHT22;8330;-33.858;151.184;2023-04-03T10:13:55;21.80;99.90
16441;DHT22;8330;-33.858;151.184;2023-04-03T10:16:34;21.80;99.90
16441;DHT22;8330;-33.858;151.184;2023-04-03T10:19:31;21.80;99.90
16441;DHT22;8330;-33.858;151.184;2023-04-03T10:25:17;21.80;99.90
16441;DHT22;8330;-33.858;151.184;2023-04-03T10:27:58;21.80;99.90
16441;DHT22;8330;-33.858;151.184;2023-04-03T10:30:36;21.80;99.90
16441;DHT22;8330;-33.858;151.184;2023-04-03T10:33:41;21.80;99.90
16441;DHT22;8330;-33.858;151.184;2023-04-03T10:36:19;21.80;99.90
16441;DHT22;8330;-33.858;151.184;2023-04-03T10:39:00;21.80;99.90
16441;DHT22;8330;-33.858;151.184;2023-04-03T10:41:43;21.80;99.90
16441;DHT22;8330;-33.858;151.184;2023-04-03T10:44:26;21.80;99.90
16441;DHT22;8330;-33.858;151.184;2023-04-03T10:47:04;21.80;99.90
16441;DHT22;8330;-33.858;151.184;2023-04-03T10:49:48;21.70;99.90
16441;DHT22;8330;-33.858;151.184;2023-04-03T10:52:25;21.70;99.90
16441;DHT22;8330;-33.858;151.184;2023-04-03T10:55:06;21.70;99.90
16441;DHT22;8330;-33.858;151.184;2023-04-03T10:57:39;21.70;99.90
16441;DHT22;8330;-33.858;151.184;2023-04-03T11:00:18;21.70;99.90
16441;DHT22;8330;-33.858;151.184;2023-04-03T11:02:53;21.70;99.90
16441;DHT22;8330;-33.858;151.184;2023-04-03T11:05:30;21.60;99.90
16441;DHT22;8330;-33.858;151.184;2023-04-03T11:08:06;21.60;99.90
16441;DHT22;8330;-33.858;151.184;2023-04-03T11:10:42;21.60;99.90
16441;DHT22;8330;-33.858;151.184;2023-04-03T11:13:17;21.60;99.90
16441;DHT22;8330;-33.858;151.184;2023-04-03T11:15:54;21.60;99.90
16441;DHT22;8330;-33.858;151.184;2023-04-03T11:18:31;21.50;99.90
16441;DHT22;8330;-33.858;151.184;2023-04-03T11:21:06;21.50;99.90
16441;DHT22;8330;-33.858;151.184;2023-04-03T11:23:40;21.50;99.90
16441;DHT22;8330;-33.858;151.184;2023-04-03T11:26:14;21.50;99.90
16441;DHT22;8330;-33.858;151.184;2023-04-03T11:28:46;21.50;99.90
16441;DHT22;8330;-33.858;151.184;2023-04-03T11:31:38;21.40;99.90
16441;DHT22;8330;-33.858;151.184;2023-04-03T11:34:23;21.40;99.90
16441;DHT22;8330;-33.858;151.184;2023-04-03T11:36:59;21.40;99.90
16441;DHT22;8330;-33.858;151.184;2023-04-03T11:39:33;21.40;99.90
16441;DHT22;8330;-33.858;151.184;2023-04-03T11:42:17;21.40;99.90
16441;DHT22;8330;-33.858;151.184;2023-04-03T11:45:24;21.40;99.90
16441;DHT22;8330;-33.858;151.184;2023-04-03T11:47:58;21.40;99.90
16441;DHT22;8330;-33.858;151.184;2023-04-03T11:50:42;21.40;99.90
16441;DHT22;8330;-33.858;151.184;2023-04-03T11:53:43;21.40;99.90
16441;DHT22;8330;-33.858;151.184;2023-04-03T11:56:29;21.30;99.90
16441;DHT22;8330;-33.858;151.184;2023-04-03T11:59:23;21.40;99.90
16441;DHT22;8330;-33.858;151.184;2023-04-03T12:01:56;21.30;99.90
16441;DHT22;8330;-33.858;151.184;2023-04-03T12:04:29;21.30;99.90
16441;DHT22;8330;-33.858;151.184;2023-04-03T12:09:59;21.20;99.90
16441;DHT22;8330;-33.858;151.184;2023-04-03T12:12:41;21.30;99.90
16441;DHT22;8330;-33.858;151.184;2023-04-03T12:15:38;21.30;99.90
16441;DHT22;8330;-33.858;151.184;2023-04-03T12:21:17;21.20;99.90
16441;DHT22;8330;-33.858;151.184;2023-04-03T12:24:12;21.20;99.90
16441;DHT22;8330;-33.858;151.184;2023-04-03T12:27:11;21.20;99.90
16441;DHT22;8330;-33.858;151.184;2023-04-03T12:29:49;21.20;99.90
16441;DHT22;8330;-33.858;151.184;2023-04-03T12:32:41;21.10;99.90
16441;DHT22;8330;-33.858;151.184;2023-04-03T12:35:27;21.10;99.90
16441;DHT22;8330;-33.858;151.184;2023-04-03T12:38:30;21.10;99.90
16441;DHT22;8330;-33.858;151.184;2023-04-03T12:41:18;21.10;99.90
16441;DHT22;8330;-33.858;151.184;2023-04-03T12:44:15;21.10;99.90
16441;DHT22;8330;-33.858;151.184;2023-04-03T12:46:53;21.10;99.90
16441;DHT22;8330;-33.858;151.184;2023-04-03T12:49:35;21.00;99.90
16441;DHT22;8330;-33.858;151.184;2023-04-03T12:52:19;21.00;99.90
16441;DHT22;8330;-33.858;151.184;2023-04-03T12:54:54;21.00;99.90
16441;DHT22;8330;-33.858;151.184;2023-04-03T12:57:26;20.90;99.90
16441;DHT22;8330;-33.858;151.184;2023-04-03T12:59:58;20.90;99.90
16441;DHT22;8330;-33.858;151.184;2023-04-03T13:02:32;20.90;99.90
16441;DHT22;8330;-33.858;151.184;2023-04-03T13:05:08;20.90;99.90
16441;DHT22;8330;-33.858;151.184;2023-04-03T13:07:40;20.90;99.90
16441;DHT22;8330;-33.858;151.184;2023-04-03T13:10:18;20.90;99.90
16441;DHT22;8330;-33.858;151.184;2023-04-03T13:12:51;20.80;99.90
16441;DHT22;8330;-33.858;151.184;2023-04-03T13:15:24;20.80;99.90
16441;DHT22;8330;-33.858;151.184;2023-04-03T13:17:56;20.80;99.90
16441;DHT22;8330;-33.858;151.184;2023-04-03T13:20:28;20.80;99.90
16441;DHT22;8330;-33.858;151.184;2023-04-03T13:23:01;20.80;99.90
16441;DHT22;8330;-33.858;151.184;2023-04-03T13:25:37;20.80;99.90
16441;DHT22;8330;-33.858;151.184;2023-04-03T13:28:13;20.80;99.90
16441;DHT22;8330;-33.858;151.184;2023-04-03T13:31:02;20.70;99.90
16441;DHT22;8330;-33.858;151.184;2023-04-03T13:33:36;20.70;99.90
16441;DHT22;8330;-33.858;151.184;2023-04-03T13:36:10;20.60;99.90
16441;DHT22;8330;-33.858;151.184;2023-04-03T13:38:47;20.70;99.90
16441;DHT22;8330;-33.858;151.184;2023-04-03T13:41:31;20.60;99.90
16441;DHT22;8330;-33.858;151.184;2023-04-03T13:44:29;20.60;99.90
16441;DHT22;8330;-33.858;151.184;2023-04-03T13:47:16;20.60;99.90
16441;DHT22;8330;-33.858;151.184;2023-04-03T13:49:59;20.50;99.90
16441;DHT22;8330;-33.858;151.184;2023-04-03T13:52:33;20.50;99.90
16441;DHT22;8330;-33.858;151.184;2023-04-03T13:55:18;20.40;99.90
16441;DHT22;8330;-33.858;151.184;2023-04-03T13:57:57;20.40;99.90
16441;DHT22;8330;-33.858;151.184;2023-04-03T14:00:37;20.40;99.90
16441;DHT22;8330;-33.858;151.184;2023-04-03T14:03:19;20.40;99.90
16441;DHT22;8330;-33.858;151.184;2023-04-03T14:05:51;20.40;99.90
16441;DHT22;8330;-33.858;151.184;2023-04-03T14:08:23;20.40;99.90
16441;DHT22;8330;-33.858;151.184;2023-04-03T14:10:55;20.40;99.90
16441;DHT22;8330;-33.858;151.184;2023-04-03T14:13:30;20.40;99.90
16441;DHT22;8330;-33.858;151.184;2023-04-03T14:16:01;20.30;99.90
16441;DHT22;8330;-33.858;151.184;2023-04-03T14:18:32;20.30;99.90
16441;DHT22;8330;-33.858;151.184;2023-04-03T14:21:04;20.20;99.90
16441;DHT22;8330;-33.858;151.184;2023-04-03T14:23:35;20.20;99.90
16441;DHT22;8330;-33.858;151.184;2023-04-03T14:26:09;20.10;99.90
16441;DHT22;8330;-33.858;151.184;2023-04-03T14:28:43;20.10;99.90
16441;DHT22;8330;-33.858;151.184;2023-04-03T14:31:15;20.00;99.90
16441;DHT22;8330;-33.858;151.184;2023-04-03T14:33:48;20.00;99.90
16441;DHT22;8330;-33.858;151.184;2023-04-03T14:36:21;19.90;99.90
16441;DHT22;8330;-33.858;151.184;2023-04-03T14:38:56;19.80;99.90
16441;DHT22;8330;-33.858;151.184;2023-04-03T14:41:29;19.70;99.90
16441;DHT22;8330;-33.858;151.184;2023-04-03T14:44:02;19.70;99.90
16441;DHT22;8330;-33.858;151.184;2023-04-03T14:46:36;19.70;99.90
16441;DHT22;8330;-33.858;151.184;2023-04-03T14:49:14;19.70;99.90
16441;DHT22;8330;-33.858;151.184;2023-04-03T14:51:45;19.70;99.90
16441;DHT22;8330;-33.858;151.184;2023-04-03T14:54:19;19.70;99.90
16441;DHT22;8330;-33.858;151.184;2023-04-03T14:56:53;19.80;99.90
16441;DHT22;8330;-33.858;151.184;2023-04-03T14:59:28;19.80;99.90
16441;DHT22;8330;-33.858;151.184;2023-04-03T15:02:00;19.80;99.90
16441;DHT22;8330;-33.858;151.184;2023-04-03T15:04:34;19.90;99.90
16441;DHT22;8330;-33.858;151.184;2023-04-03T15:07:07;19.90;99.90
16441;DHT22;8330;-33.858;151.184;2023-04-03T15:09:38;19.80;99.90
16441;DHT22;8330;-33.858;151.184;2023-04-03T15:12:10;19.80;99.90
16441;DHT22;8330;-33.858;151.184;2023-04-03T15:14:43;19.80;99.90
16441;DHT22;8330;-33.858;151.184;2023-04-03T15:17:16;19.80;99.90
16441;DHT22;8330;-33.858;151.184;2023-04-03T15:19:48;19.80;99.90
16441;DHT22;8330;-33.858;151.184;2023-04-03T15:22:20;19.80;99.90
16441;DHT22;8330;-33.858;151.184;2023-04-03T15:24:51;19.80;99.90
16441;DHT22;8330;-33.858;151.184;2023-04-03T15:27:22;19.80;99.90
16441;DHT22;8330;-33.858;151.184;2023-04-03T15:29:55;19.70;99.90
16441;DHT22;8330;-33.858;151.184;2023-04-03T15:32:26;19.70;99.90
16441;DHT22;8330;-33.858;151.184;2023-04-03T15:34:57;19.70;99.90
16441;DHT22;8330;-33.858;151.184;2023-04-03T15:37:28;19.70;99.90
16441;DHT22;8330;-33.858;151.184;2023-04-03T15:39:59;19.70;99.90
16441;DHT22;8330;-33.858;151.184;2023-04-03T15:42:30;19.60;99.90
16441;DHT22;8330;-33.858;151.184;2023-04-03T15:45:04;19.60;99.90
16441;DHT22;8330;-33.858;151.184;2023-04-03T15:47:35;19.60;99.90
16441;DHT22;8330;-33.858;151.184;2023-04-03T15:50:07;19.60;99.90
16441;DHT22;8330;-33.858;151.184;2023-04-03T15:52:39;19.60;99.90
16441;DHT22;8330;-33.858;151.184;2023-04-03T15:55:10;19.60;99.90
16441;DHT22;8330;-33.858;151.184;2023-04-03T15:57:41;19.60;99.90
16441;DHT22;8330;-33.858;151.184;2023-04-03T16:00:15;19.60;99.90
16441;DHT22;8330;-33.858;151.184;2023-04-03T16:02:48;19.50;99.90